createdAt,value
2017-12-13T00:00:38.935Z,2.53
2017-12-13T00:03:06.318Z,2.64
2017-12-13T00:05:33.727Z,2.75
2017-12-13T00:08:01.123Z,2.55
2017-12-13T00:10:28.530Z,2.42
2017-12-13T00:12:55.922Z,2.40
2017-12-13T00:15:23.336Z,2.39
2017-12-13T00:17:50.722Z,2.45
2017-12-13T00:20:18.150Z,2.28
2017-12-13T00:22:45.543Z,2.36
2017-12-13T00:25:12.935Z,2.35
2017-12-13T00:27:40.353Z,2.46
2017-12-13T00:30:07.743Z,2.43
2017-12-13T00:32:35.143Z,2.45
2017-12-13T00:35:02.539Z,2.32
2017-12-13T00:37:29.935Z,2.40
2017-12-13T00:39:57.318Z,2.43
2017-12-13T00:42:24.726Z,2.45
2017-12-13T00:44:52.120Z,2.44
2017-12-13T00:47:19.603Z,2.60
2017-12-13T00:49:46.995Z,2.73
2017-12-13T00:52:14.410Z,2.71
2017-12-13T00:54:41.807Z,2.73
2017-12-13T00:57:09.211Z,2.73
2017-12-13T00:59:36.607Z,2.77
2017-12-13T01:02:04.929Z,2.58
2017-12-13T01:04:32.315Z,2.58
2017-12-13T01:06:59.719Z,2.80
2017-12-13T01:09:27.109Z,2.80
2017-12-13T01:11:54.514Z,2.81
2017-12-13T01:14:21.899Z,2.84
2017-12-13T01:16:49.297Z,2.77
2017-12-13T01:19:16.692Z,2.84
2017-12-13T01:21:44.098Z,3.05
2017-12-13T01:24:11.501Z,2.99
2017-12-13T01:26:38.911Z,3.00
2017-12-13T01:29:06.314Z,3.12
2017-12-13T01:31:33.998Z,2.95
2017-12-13T01:34:01.399Z,2.99
2017-12-13T01:36:28.797Z,3.01
2017-12-13T01:38:56.291Z,3.05
2017-12-13T01:41:23.687Z,2.99
2017-12-13T01:43:51.088Z,3.04
2017-12-13T01:46:18.486Z,3.12
2017-12-13T01:48:45.890Z,3.01
2017-12-13T01:51:13.279Z,3.01
2017-12-13T01:53:40.671Z,2.85
2017-12-13T01:56:08.058Z,2.66
2017-12-13T01:58:35.493Z,2.62
2017-12-13T02:01:02.902Z,2.64
2017-12-13T02:03:30.286Z,2.58
2017-12-13T02:05:57.683Z,2.49
2017-12-13T02:08:25.070Z,2.55
2017-12-13T02:10:52.475Z,2.46
2017-12-13T02:13:19.894Z,2.60
2017-12-13T02:15:47.303Z,2.48
2017-12-13T02:18:14.703Z,2.32
2017-12-13T02:20:42.124Z,2.29
2017-12-13T02:23:09.516Z,2.27
2017-12-13T02:25:36.916Z,2.23
2017-12-13T02:28:04.389Z,2.20
2017-12-13T02:30:31.795Z,2.21
2017-12-13T02:32:59.203Z,2.08
2017-12-13T02:35:26.616Z,1.98
2017-12-13T02:37:54.007Z,1.78
2017-12-13T02:40:33.202Z,1.76
2017-12-13T02:43:00.595Z,1.87
2017-12-13T02:45:28.051Z,1.91
2017-12-13T02:47:55.449Z,2.00
2017-12-13T02:50:22.851Z,1.73
2017-12-13T02:52:50.329Z,1.80
2017-12-13T02:55:17.724Z,1.86
2017-12-13T02:57:45.146Z,1.95
2017-12-13T03:00:12.547Z,2.02
2017-12-13T03:02:39.939Z,1.85
2017-12-13T03:05:07.344Z,1.89
2017-12-13T03:07:34.750Z,1.76
2017-12-13T03:10:02.145Z,1.77
2017-12-13T03:12:29.531Z,1.73
2017-12-13T03:14:56.926Z,1.79
2017-12-13T03:17:24.319Z,1.78
2017-12-13T03:19:51.735Z,1.71
2017-12-13T03:22:19.129Z,1.56
2017-12-13T03:24:46.633Z,1.54
2017-12-13T03:27:14.035Z,1.67
2017-12-13T03:29:41.438Z,1.74
2017-12-13T03:32:08.844Z,1.65
2017-12-13T03:34:36.238Z,1.67
2017-12-13T03:37:03.643Z,1.56
2017-12-13T03:39:31.040Z,1.58
2017-12-13T03:41:58.439Z,1.69
2017-12-13T03:44:25.836Z,1.72
2017-12-13T03:46:53.230Z,1.72
2017-12-13T03:49:20.618Z,1.78
2017-12-13T03:51:48.023Z,1.74
2017-12-13T03:54:15.418Z,1.77
2017-12-13T03:56:42.820Z,1.63
2017-12-13T03:59:10.211Z,1.89
2017-12-13T04:01:37.615Z,1.85
2017-12-13T04:04:05.087Z,1.83
2017-12-13T04:06:32.483Z,1.80
2017-12-13T04:08:59.879Z,1.91
2017-12-13T04:11:27.283Z,1.75
2017-12-13T04:13:54.670Z,1.76
2017-12-13T04:16:22.074Z,1.90
2017-12-13T04:18:49.464Z,1.93
2017-12-13T04:21:16.858Z,2.03
2017-12-13T04:23:44.251Z,2.00
2017-12-13T04:26:11.690Z,1.97
2017-12-13T04:28:39.074Z,1.83
2017-12-13T04:31:06.487Z,1.93
2017-12-13T04:33:33.891Z,1.88
2017-12-13T04:36:01.290Z,1.76
2017-12-13T04:38:28.691Z,1.82
2017-12-13T04:40:56.088Z,1.69
2017-12-13T04:43:23.486Z,1.75
2017-12-13T04:45:50.895Z,1.74
2017-12-13T04:48:18.417Z,1.77
2017-12-13T04:50:45.774Z,1.80
2017-12-13T04:53:13.174Z,1.87
2017-12-13T04:55:40.566Z,1.76
2017-12-13T04:58:07.964Z,1.86
2017-12-13T05:00:35.358Z,1.73
2017-12-13T05:03:02.809Z,1.76
2017-12-13T05:05:30.207Z,1.86
2017-12-13T05:07:57.617Z,1.70
2017-12-13T05:10:25.017Z,1.68
2017-12-13T05:12:52.408Z,1.77
2017-12-13T05:15:19.799Z,1.76
2017-12-13T05:17:47.203Z,1.80
2017-12-13T05:20:14.614Z,1.71
2017-12-13T05:22:42.039Z,1.77
2017-12-13T05:25:09.431Z,1.70
2017-12-13T05:27:36.846Z,1.76
2017-12-13T05:30:05.033Z,1.77
2017-12-13T05:32:32.429Z,1.80
2017-12-13T05:34:59.818Z,1.83
2017-12-13T05:37:27.234Z,1.86
2017-12-13T05:39:54.640Z,1.80
2017-12-13T05:42:22.044Z,1.82
2017-12-13T05:44:49.431Z,1.83
2017-12-13T05:47:16.827Z,1.65
2017-12-13T05:49:44.238Z,1.71
2017-12-13T05:52:11.710Z,1.70
2017-12-13T05:54:39.118Z,1.65
2017-12-13T05:57:06.978Z,1.70
2017-12-13T05:59:34.410Z,1.72
2017-12-13T06:02:01.803Z,1.84
2017-12-13T06:04:29.239Z,1.86
2017-12-13T06:06:56.635Z,1.75
2017-12-13T06:09:24.048Z,1.63
2017-12-13T06:11:51.454Z,1.55
2017-12-13T06:14:18.943Z,1.50
2017-12-13T06:16:46.335Z,1.58
2017-12-13T06:19:13.741Z,1.60
2017-12-13T06:21:41.156Z,1.62
2017-12-13T06:24:08.553Z,1.46
2017-12-13T06:26:35.947Z,1.50
2017-12-13T06:29:03.357Z,1.62
2017-12-13T06:31:30.765Z,1.61
2017-12-13T06:33:58.203Z,1.49
2017-12-13T06:36:25.591Z,1.56
2017-12-13T06:38:52.985Z,1.47
2017-12-13T06:41:20.379Z,1.51
2017-12-13T06:43:47.771Z,1.44
2017-12-13T06:46:15.163Z,1.46
2017-12-13T06:48:42.623Z,1.54
2017-12-13T06:51:10.004Z,1.49
2017-12-13T06:53:37.387Z,1.51
2017-12-13T06:56:04.882Z,1.39
2017-12-13T06:58:32.271Z,1.53
2017-12-13T07:00:59.670Z,1.64
2017-12-13T07:03:27.177Z,1.64
2017-12-13T07:05:54.543Z,1.61
2017-12-13T07:08:21.963Z,1.52
2017-12-13T07:10:49.350Z,1.61
2017-12-13T07:13:16.738Z,1.55
2017-12-13T07:15:44.162Z,1.66
2017-12-13T07:18:11.567Z,1.63
2017-12-13T07:20:39.031Z,1.59
2017-12-13T07:23:06.419Z,1.58
2017-12-13T07:25:33.818Z,1.65
2017-12-13T07:28:01.203Z,1.70
2017-12-13T07:30:28.607Z,1.84
2017-12-13T07:32:56.062Z,1.78
2017-12-13T07:35:23.459Z,1.71
2017-12-13T07:37:50.844Z,1.76
2017-12-13T07:40:18.240Z,1.83
2017-12-13T07:42:45.700Z,1.79
2017-12-13T07:45:13.145Z,1.71
2017-12-13T07:47:40.526Z,1.73
2017-12-13T07:50:07.918Z,1.70
2017-12-13T07:52:35.307Z,1.56
2017-12-13T07:55:02.700Z,1.51
2017-12-13T07:57:30.088Z,1.68
2017-12-13T07:59:57.484Z,1.73
2017-12-13T08:02:24.875Z,1.75
2017-12-13T08:04:52.296Z,1.86
2017-12-13T08:07:19.684Z,2.36
2017-12-13T08:09:47.066Z,2.98
2017-12-13T08:12:14.453Z,3.62
2017-12-13T08:14:41.864Z,4.34
2017-12-13T08:17:09.246Z,4.77
2017-12-13T08:19:36.626Z,5.29
2017-12-13T08:22:04.026Z,5.48
2017-12-13T08:24:31.397Z,5.06
2017-12-13T08:26:58.906Z,4.35
2017-12-13T08:29:26.206Z,4.01
2017-12-13T08:31:53.598Z,3.90
2017-12-13T08:34:21.044Z,3.82
2017-12-13T08:36:48.435Z,3.91
2017-12-13T08:39:15.811Z,4.39
2017-12-13T08:41:43.202Z,4.57
2017-12-13T08:44:11.309Z,4.37
2017-12-13T08:46:38.670Z,4.32
2017-12-13T08:49:06.068Z,4.08
2017-12-13T08:51:33.456Z,3.85
2017-12-13T08:54:00.835Z,3.68
2017-12-13T08:56:28.220Z,3.75
2017-12-13T08:58:55.603Z,3.58
2017-12-13T09:01:22.989Z,3.52
2017-12-13T09:03:50.375Z,3.38
2017-12-13T09:06:17.765Z,3.27
2017-12-13T09:08:45.155Z,3.21
2017-12-13T09:11:12.543Z,3.25
2017-12-13T09:13:39.931Z,3.47
2017-12-13T09:16:07.319Z,3.39
2017-12-13T09:18:34.743Z,3.46
2017-12-13T09:21:02.176Z,3.50
2017-12-13T09:23:29.519Z,3.51
2017-12-13T09:25:56.894Z,3.51
2017-12-13T09:28:24.287Z,3.62
2017-12-13T09:30:51.675Z,3.50
2017-12-13T09:33:19.078Z,3.44
2017-12-13T09:35:46.445Z,3.61
2017-12-13T09:38:13.827Z,3.85
2017-12-13T09:40:41.206Z,4.16
2017-12-13T09:43:08.598Z,4.35
2017-12-13T09:45:35.988Z,4.39
2017-12-13T09:48:03.363Z,4.27
2017-12-13T09:50:30.748Z,4.19
2017-12-13T09:52:58.147Z,4.16
2017-12-13T09:55:25.528Z,4.21
2017-12-13T09:57:52.934Z,4.08
2017-12-13T10:00:20.315Z,4.06
2017-12-13T10:02:47.702Z,4.14
2017-12-13T10:05:15.086Z,4.17
2017-12-13T10:07:42.471Z,4.09
2017-12-13T10:10:09.855Z,3.84
2017-12-13T10:12:37.252Z,3.69
2017-12-13T10:15:04.750Z,3.74
2017-12-13T10:17:32.141Z,3.73
2017-12-13T10:19:59.522Z,3.67
2017-12-13T10:22:26.985Z,3.70
2017-12-13T10:24:54.375Z,3.73
2017-12-13T10:27:21.758Z,3.76
2017-12-13T10:29:49.151Z,3.88
2017-12-13T10:32:16.536Z,3.86
2017-12-13T10:34:43.921Z,3.91
2017-12-13T10:37:11.303Z,3.79
2017-12-13T10:39:38.682Z,3.86
2017-12-13T10:42:06.062Z,3.99
2017-12-13T10:44:33.455Z,4.04
2017-12-13T10:47:00.851Z,3.97
2017-12-13T10:49:28.239Z,3.82
2017-12-13T10:51:55.643Z,3.87
2017-12-13T10:54:23.026Z,3.82
2017-12-13T10:56:50.414Z,3.80
2017-12-13T10:59:17.827Z,3.94
2017-12-13T11:01:45.203Z,3.90
2017-12-13T11:04:12.608Z,4.09
2017-12-13T11:06:39.975Z,4.10
2017-12-13T11:09:07.363Z,4.09
2017-12-13T11:11:34.741Z,4.12
2017-12-13T11:14:02.124Z,4.10
2017-12-13T11:16:29.508Z,3.91
2017-12-13T11:18:56.891Z,3.95
2017-12-13T11:21:24.295Z,3.87
2017-12-13T11:23:51.676Z,3.81
2017-12-13T11:26:19.069Z,3.53
2017-12-13T11:28:46.467Z,3.55
2017-12-13T11:31:13.856Z,3.51
2017-12-13T11:33:41.244Z,3.54
2017-12-13T11:36:08.626Z,3.49
2017-12-13T11:38:36.007Z,3.43
2017-12-13T11:41:03.402Z,3.39
2017-12-13T11:43:30.771Z,3.29
2017-12-13T11:45:58.157Z,3.18
2017-12-13T11:48:25.536Z,3.11
2017-12-13T11:50:52.918Z,3.09
2017-12-13T11:53:20.312Z,3.13
2017-12-13T11:55:47.703Z,3.15
2017-12-13T11:58:15.082Z,3.08
2017-12-13T12:00:42.670Z,3.14
2017-12-13T12:03:10.083Z,3.09
2017-12-13T12:05:37.455Z,3.09
2017-12-13T12:08:04.944Z,3.10
2017-12-13T12:10:32.319Z,3.02
2017-12-13T12:12:59.715Z,3.03
2017-12-13T12:15:27.087Z,3.01
2017-12-13T12:17:54.478Z,3.11
2017-12-13T12:20:21.866Z,3.11
2017-12-13T12:22:49.248Z,3.12
2017-12-13T12:25:16.730Z,3.11
2017-12-13T12:27:44.114Z,3.19
2017-12-13T12:30:11.494Z,3.25
2017-12-13T12:32:38.912Z,3.23
2017-12-13T12:35:06.295Z,3.38
2017-12-13T12:37:33.678Z,3.39
2017-12-13T12:40:01.059Z,3.44
2017-12-13T12:42:28.442Z,3.40
2017-12-13T12:47:29.534Z,3.49
2017-12-13T12:49:56.914Z,3.68
2017-12-13T12:52:24.312Z,3.62
2017-12-13T12:54:51.683Z,3.71
2017-12-13T12:57:19.198Z,3.68
2017-12-13T12:59:46.599Z,3.71
2017-12-13T13:02:13.979Z,3.72
2017-12-13T13:04:41.446Z,3.83
2017-12-13T13:07:08.839Z,3.82
2017-12-13T13:09:36.226Z,3.74
2017-12-13T13:12:03.619Z,3.76
2017-12-13T13:14:31.002Z,3.67
2017-12-13T13:16:58.384Z,3.55
2017-12-13T13:19:25.776Z,3.61
2017-12-13T13:21:53.152Z,3.46
2017-12-13T13:24:20.543Z,3.55
2017-12-13T13:26:47.925Z,3.44
2017-12-13T13:29:15.325Z,3.44
2017-12-13T13:31:42.714Z,3.40
2017-12-13T13:34:10.099Z,3.47
2017-12-13T13:36:37.480Z,3.50
2017-12-13T13:39:04.879Z,3.47
2017-12-13T13:41:32.258Z,3.47
2017-12-13T13:43:59.655Z,3.45
2017-12-13T13:46:27.039Z,3.42
2017-12-13T13:48:54.456Z,3.43
2017-12-13T13:51:21.839Z,3.42
2017-12-13T13:53:49.227Z,3.35
2017-12-13T13:56:16.603Z,3.27
2017-12-13T13:58:43.995Z,3.36
2017-12-13T14:01:11.385Z,3.41
2017-12-13T14:03:38.771Z,3.38
2017-12-13T14:06:06.159Z,3.41
2017-12-13T14:08:33.543Z,3.34
2017-12-13T14:11:00.923Z,3.25
2017-12-13T14:13:28.324Z,3.40
2017-12-13T14:15:55.762Z,3.41
2017-12-13T14:18:23.204Z,3.32
2017-12-13T14:20:50.598Z,3.38
2017-12-13T14:23:17.988Z,3.35
2017-12-13T14:25:45.645Z,3.31
2017-12-13T14:28:13.042Z,3.17
2017-12-13T14:30:40.423Z,3.28
2017-12-13T14:33:07.808Z,3.26
2017-12-13T14:35:35.199Z,3.18
2017-12-13T14:38:02.575Z,3.20
2017-12-13T14:40:29.962Z,3.19
2017-12-13T14:42:57.343Z,3.18
2017-12-13T14:45:24.764Z,3.14
2017-12-13T14:47:52.142Z,3.18
2017-12-13T14:50:19.535Z,3.19
2017-12-13T14:52:46.924Z,3.27
2017-12-13T14:55:14.315Z,3.32
2017-12-13T14:57:41.703Z,3.24
2017-12-13T15:00:09.179Z,3.20
2017-12-13T15:02:36.582Z,3.26
2017-12-13T15:05:03.972Z,3.18
2017-12-13T15:07:31.370Z,3.20
2017-12-13T15:09:58.799Z,3.29
2017-12-13T15:12:26.178Z,3.22
2017-12-13T15:14:53.569Z,3.40
2017-12-13T15:17:20.948Z,3.41
2017-12-13T15:19:48.378Z,3.27
2017-12-13T15:22:15.951Z,3.32
2017-12-13T15:24:43.434Z,3.41
2017-12-13T15:27:10.836Z,3.37
2017-12-13T15:29:38.216Z,3.29
2017-12-13T15:32:05.610Z,3.29
2017-12-13T15:34:33.015Z,3.21
2017-12-13T15:37:00.371Z,3.30
2017-12-13T15:39:27.756Z,3.38
2017-12-13T15:41:55.145Z,3.38
2017-12-13T15:44:22.523Z,3.24
2017-12-13T15:46:49.910Z,3.24
2017-12-13T15:49:17.284Z,3.30
2017-12-13T15:51:44.740Z,3.28
2017-12-13T15:54:12.063Z,3.21
2017-12-13T15:56:39.462Z,3.21
2017-12-13T15:59:06.834Z,3.21
2017-12-13T16:01:34.220Z,3.22
2017-12-13T16:04:01.608Z,3.12
2017-12-13T16:06:28.991Z,3.13
2017-12-13T16:08:56.373Z,3.16
2017-12-13T16:11:23.750Z,3.07
2017-12-13T16:13:51.139Z,2.88
2017-12-13T16:16:18.523Z,2.87
2017-12-13T16:18:45.919Z,2.84
2017-12-13T16:21:13.330Z,3.03
2017-12-13T16:23:40.691Z,2.88
2017-12-13T16:26:08.079Z,2.94
2017-12-13T16:28:35.487Z,2.86
2017-12-13T16:31:02.871Z,2.93
2017-12-13T16:33:30.343Z,2.84
2017-12-13T16:35:57.815Z,2.84
2017-12-13T16:38:25.207Z,2.68
2017-12-13T16:40:52.594Z,2.65
2017-12-13T16:43:19.978Z,2.54
2017-12-13T16:45:47.355Z,2.60
2017-12-13T16:48:14.758Z,2.54
2017-12-13T16:50:42.138Z,2.60
2017-12-13T16:53:09.523Z,2.62
2017-12-13T16:55:36.907Z,2.55
2017-12-13T16:58:04.300Z,2.58
2017-12-13T17:00:31.686Z,2.56
2017-12-13T17:02:59.068Z,2.48
2017-12-13T17:05:26.459Z,2.59
2017-12-13T17:07:53.840Z,2.63
2017-12-13T17:10:21.232Z,2.58
2017-12-13T17:12:48.622Z,2.52
2017-12-13T17:15:16.015Z,2.49
2017-12-13T17:17:43.396Z,2.19
2017-12-13T17:20:10.800Z,2.34
2017-12-13T17:22:38.173Z,2.35
2017-12-13T17:25:05.565Z,2.25
2017-12-13T17:27:32.941Z,2.23
2017-12-13T17:30:00.322Z,2.31
2017-12-13T17:32:27.706Z,2.31
2017-12-13T17:34:55.108Z,2.32
2017-12-13T17:37:22.491Z,2.38
2017-12-13T17:39:49.920Z,2.58
2017-12-13T17:42:17.286Z,2.49
2017-12-13T17:44:44.675Z,2.53
2017-12-13T17:47:12.056Z,2.67
2017-12-13T17:49:39.463Z,2.56
2017-12-13T17:52:06.848Z,2.64
2017-12-13T17:54:34.235Z,2.77
2017-12-13T17:57:01.615Z,2.79
2017-12-13T17:59:29.023Z,2.85
2017-12-13T18:01:56.402Z,2.87
2017-12-13T18:04:23.780Z,2.98
2017-12-13T18:06:51.162Z,3.13
2017-12-13T18:09:18.538Z,3.12
2017-12-13T18:11:45.939Z,3.25
2017-12-13T18:14:13.320Z,3.29
2017-12-13T18:16:40.720Z,3.25
2017-12-13T18:19:08.108Z,3.29
2017-12-13T18:21:35.514Z,3.35
2017-12-13T18:24:02.899Z,3.45
2017-12-13T18:26:30.296Z,3.55
2017-12-13T18:28:57.676Z,3.58
2017-12-13T18:31:25.068Z,3.59
2017-12-13T18:33:52.469Z,3.70
2017-12-13T18:36:19.910Z,3.57
2017-12-13T18:38:47.295Z,3.70
2017-12-13T18:41:14.687Z,3.81
2017-12-13T18:43:42.084Z,3.91
2017-12-13T18:46:09.467Z,3.86
2017-12-13T18:48:36.848Z,3.98
2017-12-13T18:51:04.231Z,4.11
2017-12-13T18:53:31.615Z,4.03
2017-12-13T18:55:59.000Z,3.97
2017-12-13T18:58:26.418Z,3.92
2017-12-13T19:00:53.875Z,4.07
2017-12-13T19:03:21.270Z,4.03
2017-12-13T19:05:48.650Z,4.04
2017-12-13T19:08:16.058Z,4.17
2017-12-13T19:10:43.444Z,4.31
2017-12-13T19:13:11.078Z,4.40
2017-12-13T19:15:39.246Z,4.33
2017-12-13T19:18:06.646Z,4.53
2017-12-13T19:20:34.021Z,4.38
2017-12-13T19:23:01.519Z,4.39
2017-12-13T19:25:28.887Z,4.46
2017-12-13T19:27:56.275Z,4.36
2017-12-13T19:30:23.671Z,4.47
2017-12-13T19:32:51.182Z,4.55
2017-12-13T19:35:18.567Z,4.49
2017-12-13T19:37:45.959Z,4.48
2017-12-13T19:40:13.338Z,4.63
2017-12-13T19:42:40.809Z,4.75
2017-12-13T19:45:08.191Z,4.76
2017-12-13T19:47:35.632Z,4.75
2017-12-13T19:50:03.015Z,4.66
2017-12-13T19:52:30.396Z,4.69
2017-12-13T19:54:57.791Z,4.67
2017-12-13T19:57:25.164Z,4.66
2017-12-13T19:59:52.700Z,4.45
2017-12-13T20:02:20.084Z,4.41
2017-12-13T20:04:47.466Z,4.54
2017-12-13T20:07:14.846Z,4.39
2017-12-13T20:09:42.249Z,4.38
2017-12-13T20:12:09.622Z,4.35
2017-12-13T20:14:37.026Z,4.26
2017-12-13T20:17:04.407Z,4.23
2017-12-13T20:19:31.797Z,4.27
2017-12-13T20:21:59.174Z,4.12
2017-12-13T20:24:26.559Z,4.04
2017-12-13T20:26:53.960Z,4.06
2017-12-13T20:29:21.461Z,4.04
2017-12-13T20:31:48.843Z,4.04
2017-12-13T20:34:16.240Z,4.04
2017-12-13T20:36:43.663Z,3.98
2017-12-13T20:39:11.040Z,4.10
2017-12-13T20:41:38.446Z,4.01
2017-12-13T20:44:05.898Z,3.99
2017-12-13T20:46:33.291Z,3.98
2017-12-13T20:49:01.006Z,3.92
2017-12-13T20:51:28.386Z,3.79
2017-12-13T20:53:55.772Z,3.86
2017-12-13T20:56:23.155Z,3.85
2017-12-13T20:58:50.618Z,3.74
2017-12-13T21:01:18.168Z,3.66
2017-12-13T21:03:45.543Z,3.68
2017-12-13T21:06:12.935Z,3.68
2017-12-13T21:08:40.342Z,3.76
2017-12-13T21:11:07.809Z,3.65
2017-12-13T21:13:35.220Z,3.69
2017-12-13T21:16:02.594Z,3.68
2017-12-13T21:18:30.181Z,3.69
2017-12-13T21:20:57.574Z,3.66
2017-12-13T21:23:24.948Z,3.68
2017-12-13T21:25:52.450Z,3.85
2017-12-13T21:28:19.822Z,3.86
2017-12-13T21:30:47.222Z,3.87
2017-12-13T21:33:14.607Z,3.78
2017-12-13T21:35:42.000Z,3.77
2017-12-13T21:38:09.387Z,3.75
2017-12-13T21:40:36.790Z,3.72
2017-12-13T21:43:04.176Z,3.68
2017-12-13T21:45:31.559Z,3.77
2017-12-13T21:47:58.983Z,3.81
2017-12-13T21:50:26.372Z,3.86
2017-12-13T21:52:53.763Z,3.96
2017-12-13T21:55:21.142Z,4.00
2017-12-13T21:57:48.535Z,4.03
2017-12-13T22:00:15.916Z,3.89
2017-12-13T22:02:43.299Z,3.84
2017-12-13T22:05:10.689Z,3.83
2017-12-13T22:07:38.088Z,3.86
2017-12-13T22:10:05.468Z,3.85
2017-12-13T22:12:32.855Z,3.76
2017-12-13T22:15:00.239Z,3.69
2017-12-13T22:17:27.662Z,3.59
2017-12-13T22:19:55.053Z,3.53
2017-12-13T22:22:22.444Z,3.52
2017-12-13T22:24:49.852Z,3.42
2017-12-13T22:27:17.247Z,3.35
2017-12-13T22:29:44.658Z,3.47
2017-12-13T22:36:59.318Z,3.30
2017-12-13T22:39:26.696Z,3.36
2017-12-13T22:41:54.600Z,3.30
2017-12-13T22:44:22.027Z,3.25
2017-12-13T22:46:49.407Z,3.16
2017-12-13T22:49:16.800Z,3.13
2017-12-13T22:51:44.192Z,2.96
2017-12-13T22:54:11.582Z,3.01
2017-12-13T22:56:38.963Z,3.06
2017-12-13T22:59:06.359Z,3.01
2017-12-13T23:01:33.743Z,2.97
2017-12-13T23:04:01.158Z,3.11
2017-12-13T23:06:28.534Z,3.22
2017-12-13T23:08:55.920Z,3.32
2017-12-13T23:11:23.298Z,3.34
2017-12-13T23:13:50.691Z,3.31
2017-12-13T23:16:18.075Z,3.29
2017-12-13T23:18:45.471Z,3.33
2017-12-13T23:21:12.847Z,3.40
2017-12-13T23:23:40.256Z,3.32
2017-12-13T23:26:07.655Z,3.29
2017-12-13T23:28:35.032Z,3.30
2017-12-13T23:31:02.447Z,3.38
2017-12-13T23:33:29.823Z,3.39
2017-12-13T23:35:57.239Z,3.28
2017-12-13T23:38:24.625Z,3.31
2017-12-13T23:40:52.010Z,3.34
2017-12-13T23:43:19.391Z,3.34
2017-12-13T23:45:46.790Z,3.35
2017-12-13T23:48:14.166Z,3.36
2017-12-13T23:50:41.555Z,3.27
2017-12-13T23:53:08.941Z,3.30
2017-12-13T23:55:36.328Z,3.32
2017-12-13T23:58:03.739Z,3.20
